createdAt,value
2023-02-02T00:01:54.330Z,100.00
2023-02-02T00:04:28.020Z,100.00
2023-02-02T00:06:59.544Z,100.00
2023-02-02T00:09:30.105Z,100.00
2023-02-02T00:11:59.686Z,100.00
2023-02-02T00:14:28.775Z,100.00
2023-02-02T00:16:58.197Z,100.00
2023-02-02T00:19:30.505Z,100.00
2023-02-02T00:21:59.328Z,100.00
2023-02-02T00:24:28.328Z,100.00
2023-02-02T00:26:59.197Z,100.00
2023-02-02T00:29:30.059Z,100.00
2023-02-02T00:31:58.789Z,100.00
2023-02-02T00:34:27.386Z,100.00
2023-02-02T00:36:56.765Z,100.00
2023-02-02T00:39:26.485Z,100.00
2023-02-02T00:41:56.207Z,100.00
2023-02-02T00:44:43.625Z,100.00
2023-02-02T00:47:12.631Z,100.00
2023-02-02T00:49:41.307Z,100.00
2023-02-02T00:52:11.430Z,100.00
2023-02-02T00:54:40.006Z,100.00
2023-02-02T00:57:13.283Z,100.00
2023-02-02T00:59:43.108Z,100.00
2023-02-02T01:02:12.845Z,100.00
2023-02-02T01:04:41.903Z,100.00
2023-02-02T01:07:10.394Z,100.00
2023-02-02T01:09:39.069Z,100.00
2023-02-02T01:12:07.853Z,100.00
2023-02-02T01:14:36.444Z,100.00
2023-02-02T01:17:05.943Z,100.00
2023-02-02T01:19:36.084Z,100.00
2023-02-02T01:22:04.749Z,100.00
2023-02-02T01:24:33.544Z,100.00
2023-02-02T01:27:02.320Z,100.00
2023-02-02T01:29:32.563Z,100.00
2023-02-02T01:32:01.312Z,100.00
2023-02-02T01:34:30.221Z,100.00
2023-02-02T01:36:58.929Z,100.00
2023-02-02T01:39:27.712Z,100.00
2023-02-02T01:41:57.524Z,99.80
2023-02-02T01:44:57.630Z,99.91
2023-02-02T01:47:30.295Z,99.07
2023-02-02T01:50:00.331Z,98.81
2023-02-02T01:52:30.238Z,98.19
2023-02-02T01:55:04.776Z,97.80
2023-02-02T01:57:39.195Z,97.09
2023-02-02T02:00:11.137Z,97.22
2023-02-02T02:02:47.120Z,97.29
2023-02-02T02:05:20.076Z,97.25
2023-02-02T02:07:50.835Z,96.96
2023-02-02T02:10:19.814Z,96.42
2023-02-02T02:12:48.706Z,96.39
2023-02-02T02:15:36.545Z,96.66
2023-02-02T02:18:16.184Z,96.15
2023-02-02T02:21:36.707Z,97.06
2023-02-02T02:25:02.005Z,97.29
2023-02-02T02:28:04.688Z,96.50
2023-02-02T02:30:55.587Z,97.23
2023-02-02T02:33:54.183Z,96.93
2023-02-02T02:37:19.884Z,96.37
2023-02-02T02:39:54.907Z,96.47
2023-02-02T02:42:26.208Z,96.51
2023-02-02T02:44:56.602Z,96.20
2023-02-02T02:47:26.194Z,96.60
2023-02-02T02:49:54.688Z,95.76
2023-02-02T02:52:23.682Z,95.98
2023-02-02T02:54:54.816Z,96.25
2023-02-02T02:57:40.942Z,96.09
2023-02-02T03:00:22.301Z,96.15
2023-02-02T03:03:15.367Z,95.09
2023-02-02T03:05:46.912Z,95.16
2023-02-02T03:08:18.112Z,94.67
2023-02-02T03:10:47.859Z,94.33
2023-02-02T03:13:17.199Z,94.34
2023-02-02T03:15:46.781Z,94.41
2023-02-02T03:18:17.924Z,93.55
2023-02-02T03:20:47.108Z,93.02
2023-02-02T03:23:15.702Z,93.49
2023-02-02T03:25:44.588Z,93.15
2023-02-02T03:28:13.253Z,92.52
2023-02-02T03:30:42.856Z,92.84
2023-02-02T03:33:12.588Z,92.29
2023-02-02T03:35:41.783Z,91.95
2023-02-02T03:38:10.470Z,90.91
2023-02-02T03:40:42.214Z,91.14
2023-02-02T03:43:10.924Z,90.43
2023-02-02T03:45:41.243Z,90.69
2023-02-02T03:48:09.714Z,90.42
2023-02-02T03:50:38.701Z,90.72
2023-02-02T03:53:07.290Z,90.67
2023-02-02T03:55:35.967Z,89.99
2023-02-02T03:58:04.865Z,90.51
2023-02-02T04:00:33.862Z,90.72
2023-02-02T04:03:02.527Z,90.50
2023-02-02T04:05:31.223Z,90.46
2023-02-02T04:08:00.228Z,90.55
2023-02-02T04:10:28.691Z,90.25
2023-02-02T04:12:57.793Z,90.51
2023-02-02T04:15:27.698Z,90.27
2023-02-02T04:17:56.487Z,89.39
2023-02-02T04:20:25.171Z,89.34
2023-02-02T04:22:55.202Z,89.47
2023-02-02T04:25:24.125Z,89.31
2023-02-02T04:27:52.985Z,89.03
2023-02-02T04:30:21.861Z,88.85
2023-02-02T04:32:51.790Z,89.18
2023-02-02T04:35:20.267Z,88.37
2023-02-02T04:37:48.849Z,88.44
2023-02-02T04:40:17.743Z,88.41
2023-02-02T04:42:46.425Z,88.11
2023-02-02T04:45:15.424Z,87.87
2023-02-02T04:47:43.998Z,87.77
2023-02-02T04:50:12.691Z,87.83
2023-02-02T04:52:41.484Z,87.51
2023-02-02T04:55:10.366Z,87.20
2023-02-02T04:57:39.043Z,86.55
2023-02-02T05:00:08.872Z,86.82
2023-02-02T05:02:41.342Z,86.65
2023-02-02T05:05:13.100Z,87.22
2023-02-02T05:07:41.788Z,86.68
2023-02-02T05:10:11.600Z,86.79
2023-02-02T05:12:40.190Z,86.89
2023-02-02T05:15:09.935Z,87.14
2023-02-02T05:17:38.460Z,87.34
2023-02-02T05:20:07.965Z,87.28
2023-02-02T05:22:36.568Z,86.86
2023-02-02T05:25:07.619Z,86.90
2023-02-02T05:27:36.495Z,87.38
2023-02-02T05:30:06.782Z,87.56
2023-02-02T05:32:35.410Z,87.61
2023-02-02T05:35:04.578Z,88.04
2023-02-02T05:37:33.299Z,87.05
2023-02-02T05:40:02.275Z,87.60
2023-02-02T05:42:31.264Z,87.51
2023-02-02T05:45:00.266Z,87.35
2023-02-02T05:47:29.237Z,87.86
2023-02-02T05:49:58.146Z,87.38
2023-02-02T05:52:34.189Z,87.67
2023-02-02T05:55:03.073Z,87.52
2023-02-02T05:57:31.759Z,87.41
2023-02-02T06:00:00.571Z,87.52
2023-02-02T06:02:29.860Z,87.64
2023-02-02T06:05:01.105Z,87.67
2023-02-02T06:07:29.780Z,88.01
2023-02-02T06:09:58.689Z,88.19
2023-02-02T06:12:27.247Z,88.19
2023-02-02T06:14:55.931Z,88.22
2023-02-02T06:17:24.625Z,88.96
2023-02-02T06:19:53.438Z,89.13
2023-02-02T06:22:22.509Z,90.08
2023-02-02T06:24:53.855Z,90.23
2023-02-02T06:27:22.454Z,90.48
2023-02-02T06:29:51.242Z,90.93
2023-02-02T06:32:20.123Z,91.09
2023-02-02T06:34:48.824Z,91.73
2023-02-02T06:37:17.689Z,91.70
2023-02-02T06:39:46.580Z,91.85
2023-02-02T06:42:21.147Z,91.88
2023-02-02T06:44:50.601Z,91.83
2023-02-02T06:47:19.394Z,92.43
2023-02-02T06:49:48.483Z,92.70
2023-02-02T06:52:17.073Z,93.36
2023-02-02T06:54:45.861Z,94.01
2023-02-02T06:57:14.649Z,93.81
2023-02-02T06:59:43.326Z,93.89
2023-02-02T07:02:12.628Z,94.46
2023-02-02T07:04:41.944Z,95.07
2023-02-02T07:07:11.141Z,95.18
2023-02-02T07:09:39.818Z,95.22
2023-02-02T07:12:08.501Z,96.71
2023-02-02T07:14:38.321Z,96.93
2023-02-02T07:17:07.103Z,96.66
2023-02-02T07:19:35.790Z,96.90
2023-02-02T07:22:05.052Z,96.99
2023-02-02T07:24:33.783Z,97.28
2023-02-02T07:27:02.656Z,97.81
2023-02-02T07:29:31.453Z,98.07
2023-02-02T07:32:01.332Z,98.72
2023-02-02T07:34:31.661Z,98.69
2023-02-02T07:37:00.165Z,99.43
2023-02-02T07:39:28.851Z,99.11
2023-02-02T07:41:57.540Z,98.78
2023-02-02T07:44:31.652Z,99.19
2023-02-02T07:47:00.973Z,98.72
2023-02-02T07:49:31.786Z,98.74
2023-02-02T07:52:02.320Z,98.59
2023-02-02T07:54:32.649Z,98.19
2023-02-02T07:57:02.766Z,98.30
2023-02-02T07:59:32.535Z,98.56
2023-02-02T08:02:01.468Z,98.44
2023-02-02T08:04:30.560Z,98.23
2023-02-02T08:06:59.447Z,98.01
2023-02-02T08:09:28.239Z,97.67
2023-02-02T08:12:02.250Z,97.78
2023-02-02T08:14:31.199Z,97.42
2023-02-02T08:16:59.817Z,97.30
2023-02-02T08:19:28.631Z,97.67
2023-02-02T08:21:58.425Z,97.23
2023-02-02T08:24:27.006Z,97.40
2023-02-02T08:26:55.810Z,97.56
2023-02-02T08:29:24.687Z,97.99
2023-02-02T08:31:54.448Z,98.15
2023-02-02T08:34:23.069Z,98.40
2023-02-02T08:36:52.893Z,98.67
2023-02-02T08:39:21.576Z,98.74
2023-02-02T08:41:50.364Z,99.21
2023-02-02T08:44:19.623Z,99.91
2023-02-02T08:46:49.183Z,99.84
2023-02-02T08:49:19.160Z,100.00
2023-02-02T08:51:48.891Z,99.73
2023-02-02T08:54:18.298Z,98.83
2023-02-02T08:56:47.308Z,97.17
2023-02-02T08:59:15.983Z,97.48
2023-02-02T09:01:45.822Z,97.26
2023-02-02T09:04:18.581Z,97.04
2023-02-02T09:06:47.386Z,96.84
2023-02-02T09:09:17.279Z,97.70
2023-02-02T09:11:46.166Z,96.58
2023-02-02T09:14:14.841Z,96.66
2023-02-02T09:16:44.002Z,96.97
2023-02-02T09:19:12.825Z,94.52
2023-02-02T09:21:41.951Z,93.77
2023-02-02T09:24:13.364Z,92.42
2023-02-02T09:26:44.458Z,91.67
2023-02-02T09:29:15.779Z,90.47
2023-02-02T09:31:44.916Z,89.75
2023-02-02T09:34:15.496Z,88.58
2023-02-02T09:36:44.915Z,88.93
2023-02-02T09:39:15.473Z,89.83
2023-02-02T09:42:00.129Z,90.91
2023-02-02T09:44:38.186Z,91.60
2023-02-02T09:47:24.688Z,92.22
2023-02-02T09:50:29.119Z,91.45
2023-02-02T09:53:07.548Z,91.71
2023-02-02T09:55:44.128Z,90.87
2023-02-02T09:58:27.777Z,91.13
2023-02-02T10:00:56.430Z,91.21
2023-02-02T10:03:38.030Z,91.19
2023-02-02T10:06:37.195Z,91.32
2023-02-02T10:09:16.669Z,91.37
2023-02-02T10:11:52.562Z,90.91
2023-02-02T10:14:26.569Z,90.64
2023-02-02T10:16:57.653Z,89.34
2023-02-02T10:19:29.554Z,89.30
2023-02-02T10:22:20.725Z,88.56
2023-02-02T10:24:49.403Z,88.38
2023-02-02T10:27:32.939Z,88.33
2023-02-02T10:30:02.743Z,88.30
2023-02-02T10:33:06.985Z,87.09
2023-02-02T10:36:04.825Z,86.40
2023-02-02T10:38:59.560Z,85.68
2023-02-02T10:42:01.519Z,84.73
2023-02-02T10:44:41.384Z,85.64
2023-02-02T10:47:20.994Z,84.47
2023-02-02T10:50:17.922Z,83.56
2023-02-02T10:52:58.986Z,84.40
2023-02-02T10:55:43.471Z,85.51
2023-02-02T10:58:12.495Z,85.29
2023-02-02T11:00:54.352Z,88.18
2023-02-02T11:03:25.870Z,91.87
2023-02-02T11:06:13.737Z,94.44
2023-02-02T11:08:47.778Z,98.05
2023-02-02T11:11:33.900Z,99.98
2023-02-02T11:14:08.779Z,100.00
2023-02-02T11:16:43.618Z,100.00
2023-02-02T11:19:20.074Z,100.00
2023-02-02T11:21:57.367Z,100.00
2023-02-02T11:24:48.162Z,100.00
2023-02-02T11:27:24.801Z,100.00
2023-02-02T11:30:01.605Z,100.00
2023-02-02T11:32:31.533Z,100.00
2023-02-02T11:35:03.291Z,100.00
2023-02-02T11:37:34.110Z,100.00
2023-02-02T11:40:40.813Z,100.00
2023-02-02T11:43:31.306Z,100.00
2023-02-02T11:46:06.522Z,100.00
2023-02-02T11:48:39.942Z,100.00
2023-02-02T11:51:22.751Z,100.00
2023-02-02T11:54:02.616Z,100.00
2023-02-02T11:56:36.100Z,100.00
2023-02-02T11:59:05.906Z,100.00
2023-02-02T12:01:44.765Z,100.00
2023-02-02T12:04:17.618Z,100.00
2023-02-02T12:06:46.504Z,100.00
2023-02-02T12:09:25.997Z,100.00
2023-02-02T12:11:58.675Z,100.00
2023-02-02T12:14:39.493Z,100.00
2023-02-02T12:17:24.037Z,100.00
2023-02-02T12:20:29.390Z,100.00
2023-02-02T12:23:20.834Z,100.00
2023-02-02T12:26:17.204Z,100.00
2023-02-02T12:29:20.254Z,100.00
2023-02-02T12:32:08.890Z,100.00
2023-02-02T12:34:57.026Z,100.00
2023-02-02T12:37:41.169Z,100.00
2023-02-02T12:40:25.490Z,100.00
2023-02-02T12:43:11.034Z,100.00
2023-02-02T12:45:54.655Z,100.00
2023-02-02T12:48:39.076Z,100.00
2023-02-02T12:51:41.577Z,100.00
2023-02-02T12:54:46.409Z,100.00
2023-02-02T12:57:34.508Z,100.00
2023-02-02T13:00:24.469Z,100.00
2023-02-02T13:03:16.058Z,100.00
2023-02-02T13:06:16.432Z,100.00
2023-02-02T13:08:49.776Z,100.00
2023-02-02T13:11:36.590Z,100.00
2023-02-02T13:14:22.907Z,100.00
2023-02-02T13:16:54.995Z,100.00
2023-02-02T13:19:23.646Z,100.00
2023-02-02T13:21:53.763Z,100.00
2023-02-02T13:24:31.467Z,100.00
2023-02-02T13:27:02.550Z,100.00
2023-02-02T13:29:47.645Z,100.00
2023-02-02T13:32:46.999Z,100.00
2023-02-02T13:35:53.039Z,100.00
2023-02-02T13:38:31.139Z,100.00
2023-02-02T13:41:01.563Z,100.00
2023-02-02T13:43:30.461Z,100.00
2023-02-02T13:46:01.769Z,100.00
2023-02-02T13:48:40.323Z,100.00
2023-02-02T13:51:46.693Z,100.00
2023-02-02T13:54:44.820Z,100.00
2023-02-02T13:57:41.494Z,100.00
2023-02-02T14:00:24.725Z,100.00
2023-02-02T14:02:58.024Z,100.00
2023-02-02T14:05:35.753Z,100.00
2023-02-02T14:08:08.668Z,100.00
2023-02-02T14:10:40.917Z,100.00
2023-02-02T14:13:40.795Z,100.00
2023-02-02T14:16:24.949Z,100.00
2023-02-02T14:18:55.455Z,100.00
2023-02-02T14:21:33.688Z,100.00
2023-02-02T14:24:27.651Z,100.00
2023-02-02T14:26:58.309Z,100.00
2023-02-02T14:29:32.945Z,100.00
2023-02-02T14:32:25.351Z,100.00
2023-02-02T14:34:58.495Z,100.00
2023-02-02T14:37:27.032Z,100.00
2023-02-02T14:40:11.489Z,100.00
2023-02-02T14:43:23.797Z,100.00
2023-02-02T14:46:08.284Z,100.00
2023-02-02T14:48:39.414Z,100.00
2023-02-02T14:51:17.774Z,100.00
2023-02-02T14:54:13.628Z,100.00
2023-02-02T14:56:50.246Z,100.00
2023-02-02T14:59:39.967Z,100.00
2023-02-02T15:02:26.039Z,100.00
2023-02-02T15:05:29.686Z,100.00
2023-02-02T15:08:27.229Z,100.00
2023-02-02T15:10:57.142Z,100.00
2023-02-02T15:13:29.472Z,100.00
2023-02-02T15:16:10.851Z,100.00
2023-02-02T15:18:45.017Z,100.00
2023-02-02T15:21:16.979Z,100.00
2023-02-02T15:23:45.985Z,100.00
2023-02-02T15:26:28.078Z,100.00
2023-02-02T15:29:01.196Z,100.00
2023-02-02T15:31:33.328Z,100.00
2023-02-02T15:34:11.844Z,100.00
2023-02-02T15:36:42.878Z,100.00
2023-02-02T15:39:26.420Z,100.00
2023-02-02T15:42:17.296Z,100.00
2023-02-02T15:44:46.211Z,100.00
2023-02-02T15:47:21.039Z,100.00
2023-02-02T15:49:49.929Z,100.00
2023-02-02T15:52:28.659Z,100.00
2023-02-02T15:54:59.839Z,100.00
2023-02-02T15:57:33.714Z,100.00
2023-02-02T16:00:31.157Z,100.00
2023-02-02T16:03:12.236Z,100.00
2023-02-02T16:05:50.372Z,100.00
2023-02-02T16:08:24.621Z,100.00
2023-02-02T16:11:03.073Z,99.82
2023-02-02T16:13:32.880Z,91.91
2023-02-02T16:16:04.490Z,87.25
2023-02-02T16:18:34.290Z,86.49
2023-02-02T16:21:07.391Z,86.99
2023-02-02T16:23:37.564Z,86.44
2023-02-02T16:26:08.191Z,87.88
2023-02-02T16:28:38.668Z,88.95
2023-02-02T16:31:07.654Z,89.38
2023-02-02T16:33:47.772Z,88.32
2023-02-02T16:36:25.402Z,87.44
2023-02-02T16:38:56.398Z,86.49
2023-02-02T16:41:35.623Z,88.03
2023-02-02T16:44:52.446Z,89.19
2023-02-02T16:47:28.696Z,89.15
2023-02-02T16:50:26.365Z,88.63
2023-02-02T16:53:01.725Z,88.36
2023-02-02T16:55:48.856Z,87.63
2023-02-02T16:58:20.983Z,85.87
2023-02-02T17:01:12.317Z,84.51
2023-02-02T17:03:52.161Z,83.37
2023-02-02T17:06:50.179Z,83.75
2023-02-02T17:09:37.552Z,82.87
2023-02-02T17:12:12.166Z,83.20
2023-02-02T17:15:07.797Z,83.98
2023-02-02T17:17:37.616Z,82.15
2023-02-02T17:20:07.123Z,83.15
2023-02-02T17:22:40.373Z,83.26
2023-02-02T17:25:30.070Z,84.08
2023-02-02T17:28:02.547Z,84.15
2023-02-02T17:30:32.090Z,84.01
2023-02-02T17:33:01.780Z,82.23
2023-02-02T17:35:43.608Z,79.55
2023-02-02T17:38:24.704Z,78.23
2023-02-02T17:40:54.807Z,78.15
2023-02-02T17:43:24.015Z,78.70
2023-02-02T17:45:53.621Z,78.97
2023-02-02T17:48:23.181Z,79.40
2023-02-02T17:50:52.985Z,78.68
2023-02-02T17:53:25.975Z,78.87
2023-02-02T17:55:55.683Z,77.56
2023-02-02T17:58:27.135Z,78.32
2023-02-02T18:00:59.538Z,79.13
2023-02-02T18:03:33.913Z,79.45
2023-02-02T18:06:04.180Z,80.68
2023-02-02T18:08:35.431Z,81.41
2023-02-02T18:11:04.735Z,82.33
2023-02-02T18:13:37.062Z,82.47
2023-02-02T18:16:07.277Z,82.30
2023-02-02T18:18:36.802Z,82.25
2023-02-02T18:21:11.963Z,82.82
2023-02-02T18:23:44.198Z,82.25
2023-02-02T18:26:18.021Z,82.30
2023-02-02T18:28:51.814Z,81.59
2023-02-02T18:31:24.372Z,81.37
2023-02-02T18:33:55.942Z,81.85
2023-02-02T18:36:26.061Z,81.73
2023-02-02T18:38:58.433Z,82.51
2023-02-02T18:41:28.570Z,81.86
2023-02-02T18:43:57.848Z,81.65
2023-02-02T18:46:34.350Z,80.78
2023-02-02T18:49:04.535Z,79.40
2023-02-02T18:51:34.149Z,79.67
2023-02-02T18:54:05.305Z,79.82
2023-02-02T18:56:35.413Z,79.80
2023-02-02T18:59:07.095Z,80.64
2023-02-02T19:01:38.511Z,81.01
2023-02-02T19:04:10.299Z,80.61
2023-02-02T19:06:59.440Z,78.84
2023-02-02T19:09:30.071Z,77.90
2023-02-02T19:12:00.291Z,78.88
2023-02-02T19:14:38.973Z,79.59
2023-02-02T19:17:22.750Z,80.69
2023-02-02T19:19:51.715Z,80.53
2023-02-02T19:22:27.170Z,81.73
2023-02-02T19:24:57.822Z,82.53
2023-02-02T19:27:27.834Z,83.09
2023-02-02T19:30:05.804Z,83.45
2023-02-02T19:32:36.792Z,84.00
2023-02-02T19:35:18.786Z,84.04
2023-02-02T19:37:50.070Z,84.22
2023-02-02T19:40:25.009Z,84.35
2023-02-02T19:42:56.740Z,84.92
2023-02-02T19:45:34.416Z,85.05
2023-02-02T19:48:17.968Z,85.57
2023-02-02T19:50:48.613Z,85.90
2023-02-02T19:53:24.126Z,86.36
2023-02-02T19:55:53.695Z,86.70
2023-02-02T19:58:28.592Z,87.14
2023-02-02T20:01:01.703Z,87.47
2023-02-02T20:03:43.545Z,87.70
2023-02-02T20:06:35.980Z,87.67
2023-02-02T20:09:20.020Z,88.03
2023-02-02T20:11:53.801Z,88.04
2023-02-02T20:14:29.655Z,88.10
2023-02-02T20:17:05.547Z,88.74
2023-02-02T20:19:38.063Z,88.65
2023-02-02T20:22:24.031Z,88.35
2023-02-02T20:24:56.848Z,88.44
2023-02-02T20:27:27.823Z,87.87
2023-02-02T20:30:01.877Z,87.91
2023-02-02T20:32:40.657Z,88.12
2023-02-02T20:35:37.462Z,87.98
2023-02-02T20:38:29.112Z,87.95
2023-02-02T20:40:59.852Z,87.79
2023-02-02T20:43:32.756Z,87.62
2023-02-02T20:46:02.613Z,87.76
2023-02-02T20:48:32.570Z,87.81
2023-02-02T20:51:02.697Z,88.10
2023-02-02T20:53:32.986Z,88.13
2023-02-02T20:56:03.948Z,88.01
2023-02-02T20:58:34.283Z,88.14
2023-02-02T21:05:24.709Z,88.48
2023-02-02T21:07:55.720Z,88.65
2023-02-02T21:10:27.860Z,89.09
2023-02-02T21:12:57.813Z,89.25
2023-02-02T21:16:42.546Z,89.60
2023-02-02T21:19:30.744Z,90.07
2023-02-02T21:22:00.644Z,90.27
2023-02-02T21:24:30.114Z,90.83
2023-02-02T21:26:59.772Z,90.97
2023-02-02T21:29:31.822Z,91.14
2023-02-02T21:32:02.985Z,91.26
2023-02-02T21:34:32.476Z,91.70
2023-02-02T21:37:01.602Z,91.73
2023-02-02T21:39:35.589Z,92.00
2023-02-02T21:43:06.819Z,92.24
2023-02-02T21:45:53.654Z,92.89
2023-02-02T21:48:22.645Z,92.83
2023-02-02T21:50:51.527Z,92.96
2023-02-02T21:53:24.159Z,93.42
2023-02-02T21:55:54.440Z,93.53
2023-02-02T21:58:25.856Z,93.31
2023-02-02T22:00:58.232Z,93.88
2023-02-02T22:04:23.764Z,93.80
2023-02-02T22:07:10.840Z,94.41
2023-02-02T22:09:42.028Z,94.53
2023-02-02T22:12:16.886Z,94.69
2023-02-02T22:14:47.288Z,94.98
2023-02-02T22:17:27.357Z,95.43
2023-02-02T22:20:16.081Z,95.82
2023-02-02T22:22:51.368Z,95.77
2023-02-02T22:25:34.722Z,95.77
2023-02-02T22:28:21.051Z,95.58
2023-02-02T22:30:51.569Z,95.99
2023-02-02T22:33:20.498Z,95.43
2023-02-02T22:35:49.369Z,95.36
2023-02-02T22:38:23.761Z,96.00
2023-02-02T22:40:53.047Z,95.72
2023-02-02T22:43:22.203Z,95.86
2023-02-02T22:45:50.853Z,95.75
2023-02-02T22:48:19.568Z,95.88
2023-02-02T22:50:49.151Z,95.85
2023-02-02T22:53:17.947Z,96.32
2023-02-02T22:55:46.527Z,96.33
2023-02-02T22:58:16.399Z,96.50
2023-02-02T23:00:44.814Z,96.70
2023-02-02T23:03:13.457Z,97.00
2023-02-02T23:05:42.092Z,96.98
2023-02-02T23:08:10.988Z,97.28
2023-02-02T23:10:40.073Z,97.34
2023-02-02T23:13:08.671Z,97.70
2023-02-02T23:15:37.448Z,97.77
2023-02-02T23:18:06.255Z,97.73
2023-02-02T23:20:34.909Z,97.86
2023-02-02T23:23:03.804Z,97.74
2023-02-02T23:25:33.010Z,97.90
2023-02-02T23:28:01.958Z,98.02
2023-02-02T23:30:30.888Z,97.79
2023-02-02T23:32:59.362Z,98.03
2023-02-02T23:35:27.940Z,98.35
2023-02-02T23:37:56.842Z,98.39
2023-02-02T23:40:25.702Z,98.70
2023-02-02T23:42:54.434Z,98.87
2023-02-02T23:45:23.409Z,99.36
2023-02-02T23:47:51.980Z,99.76
2023-02-02T23:50:21.093Z,99.99
2023-02-02T23:52:49.463Z,99.91
2023-02-02T23:55:18.672Z,99.97
2023-02-02T23:57:48.063Z,100.00
